sensor_id;sensor_type;location;lat;lon;timestamp;P1;durP1;ratioP1;P2;durP2;ratioP2
38901;SDS011;24661;53.566;9.910;2023-04-25T00:01:10;6.20;;;3.50;;
38901;SDS011;24661;53.566;9.910;2023-04-25T00:03:38;10.23;;;3.87;;
38901;SDS011;24661;53.566;9.910;2023-04-25T00:06:05;13.50;;;4.93;;
38901;SDS011;24661;53.566;9.910;2023-04-25T00:08:31;14.13;;;4.00;;
38901;SDS011;24661;53.566;9.910;2023-04-25T00:10:57;9.97;;;4.00;;
38901;SDS011;24661;53.566;9.910;2023-04-25T00:13:23;17.33;;;5.30;;
38901;SDS011;24661;53.566;9.910;2023-04-25T00:15:50;11.43;;;3.73;;
38901;SDS011;24661;53.566;9.910;2023-04-25T00:18:17;16.57;;;4.23;;
38901;SDS011;24661;53.566;9.910;2023-04-25T00:20:44;18.23;;;4.90;;
38901;SDS011;24661;53.566;9.910;2023-04-25T00:23:12;14.30;;;4.10;;
38901;SDS011;24661;53.566;9.910;2023-04-25T00:25:46;15.93;;;4.33;;
38901;SDS011;24661;53.566;9.910;2023-04-25T00:28:13;18.13;;;3.67;;
38901;SDS011;24661;53.566;9.910;2023-04-25T00:30:41;21.70;;;4.60;;
38901;SDS011;24661;53.566;9.910;2023-04-25T00:33:08;15.47;;;3.90;;
38901;SDS011;24661;53.566;9.910;2023-04-25T00:35:34;22.70;;;4.70;;
38901;SDS011;24661;53.566;9.910;2023-04-25T00:38:00;16.70;;;4.67;;
38901;SDS011;24661;53.566;9.910;2023-04-25T00:40:26;26.23;;;4.17;;
38901;SDS011;24661;53.566;9.910;2023-04-25T00:42:52;21.33;;;4.70;;
38901;SDS011;24661;53.566;9.910;2023-04-25T00:45:18;17.50;;;4.43;;
38901;SDS011;24661;53.566;9.910;2023-04-25T00:47:44;21.57;;;3.77;;
38901;SDS011;24661;53.566;9.910;2023-04-25T00:50:11;16.03;;;3.90;;
38901;SDS011;24661;53.566;9.910;2023-04-25T00:52:41;21.10;;;4.23;;
38901;SDS011;24661;53.566;9.910;2023-04-25T00:55:09;13.30;;;3.70;;
38901;SDS011;24661;53.566;9.910;2023-04-25T00:57:36;25.07;;;5.83;;
38901;SDS011;24661;53.566;9.910;2023-04-25T01:00:03;17.70;;;3.90;;
38901;SDS011;24661;53.566;9.910;2023-04-25T01:02:35;14.37;;;3.87;;
38901;SDS011;24661;53.566;9.910;2023-04-25T01:05:02;21.33;;;6.30;;
38901;SDS011;24661;53.566;9.910;2023-04-25T01:07:28;16.77;;;4.00;;
38901;SDS011;24661;53.566;9.910;2023-04-25T01:09:55;29.83;;;5.93;;
38901;SDS011;24661;53.566;9.910;2023-04-25T01:12:21;23.93;;;5.40;;
38901;SDS011;24661;53.566;9.910;2023-04-25T01:14:48;21.73;;;4.90;;
38901;SDS011;24661;53.566;9.910;2023-04-25T01:17:13;24.93;;;5.63;;
38901;SDS011;24661;53.566;9.910;2023-04-25T01:19:40;26.27;;;6.90;;
38901;SDS011;24661;53.566;9.910;2023-04-25T01:22:06;23.87;;;4.20;;
38901;SDS011;24661;53.566;9.910;2023-04-25T01:24:32;16.77;;;5.50;;
38901;SDS011;24661;53.566;9.910;2023-04-25T01:26:58;20.43;;;4.70;;
38901;SDS011;24661;53.566;9.910;2023-04-25T01:29:25;24.73;;;4.73;;
38901;SDS011;24661;53.566;9.910;2023-04-25T01:31:51;27.23;;;4.83;;
38901;SDS011;24661;53.566;9.910;2023-04-25T01:34:17;16.47;;;4.33;;
38901;SDS011;24661;53.566;9.910;2023-04-25T01:36:43;18.43;;;5.33;;
38901;SDS011;24661;53.566;9.910;2023-04-25T01:39:09;32.97;;;5.70;;
38901;SDS011;24661;53.566;9.910;2023-04-25T01:41:35;21.00;;;4.83;;
38901;SDS011;24661;53.566;9.910;2023-04-25T01:44:01;19.63;;;4.87;;
38901;SDS011;24661;53.566;9.910;2023-04-25T01:46:27;16.27;;;5.10;;
38901;SDS011;24661;53.566;9.910;2023-04-25T01:48:53;24.47;;;4.90;;
38901;SDS011;24661;53.566;9.910;2023-04-25T01:51:19;23.20;;;5.10;;
38901;SDS011;24661;53.566;9.910;2023-04-25T01:53:45;21.50;;;5.47;;
38901;SDS011;24661;53.566;9.910;2023-04-25T01:56:11;24.13;;;4.97;;
38901;SDS011;24661;53.566;9.910;2023-04-25T01:58:36;24.00;;;5.20;;
38901;SDS011;24661;53.566;9.910;2023-04-25T02:01:02;25.40;;;4.90;;
38901;SDS011;24661;53.566;9.910;2023-04-25T02:03:28;22.07;;;5.27;;
38901;SDS011;24661;53.566;9.910;2023-04-25T02:05:55;25.03;;;4.67;;
38901;SDS011;24661;53.566;9.910;2023-04-25T02:08:20;24.57;;;4.97;;
38901;SDS011;24661;53.566;9.910;2023-04-25T02:10:46;23.97;;;6.33;;
38901;SDS011;24661;53.566;9.910;2023-04-25T02:13:11;23.27;;;5.03;;
38901;SDS011;24661;53.566;9.910;2023-04-25T02:15:37;21.13;;;5.87;;
38901;SDS011;24661;53.566;9.910;2023-04-25T02:18:03;28.27;;;4.87;;
38901;SDS011;24661;53.566;9.910;2023-04-25T02:20:29;20.83;;;5.10;;
38901;SDS011;24661;53.566;9.910;2023-04-25T02:22:55;26.40;;;4.77;;
38901;SDS011;24661;53.566;9.910;2023-04-25T02:25:21;16.13;;;4.03;;
38901;SDS011;24661;53.566;9.910;2023-04-25T02:27:47;25.27;;;5.40;;
38901;SDS011;24661;53.566;9.910;2023-04-25T02:30:13;30.57;;;5.10;;
38901;SDS011;24661;53.566;9.910;2023-04-25T02:32:39;26.73;;;5.17;;
38901;SDS011;24661;53.566;9.910;2023-04-25T02:35:06;21.53;;;4.83;;
38901;SDS011;24661;53.566;9.910;2023-04-25T02:37:35;20.83;;;4.47;;
38901;SDS011;24661;53.566;9.910;2023-04-25T02:40:01;23.20;;;4.77;;
38901;SDS011;24661;53.566;9.910;2023-04-25T02:42:28;22.63;;;5.00;;
38901;SDS011;24661;53.566;9.910;2023-04-25T02:44:54;21.37;;;4.10;;
38901;SDS011;24661;53.566;9.910;2023-04-25T02:47:20;27.53;;;6.17;;
38901;SDS011;24661;53.566;9.910;2023-04-25T02:49:46;17.83;;;4.90;;
38901;SDS011;24661;53.566;9.910;2023-04-25T02:52:11;20.33;;;3.97;;
38901;SDS011;24661;53.566;9.910;2023-04-25T02:54:38;20.00;;;5.77;;
38901;SDS011;24661;53.566;9.910;2023-04-25T02:57:05;31.47;;;3.83;;
38901;SDS011;24661;53.566;9.910;2023-04-25T02:59:30;18.27;;;3.53;;
38901;SDS011;24661;53.566;9.910;2023-04-25T03:01:56;18.03;;;3.80;;
38901;SDS011;24661;53.566;9.910;2023-04-25T03:04:21;16.40;;;3.93;;
38901;SDS011;24661;53.566;9.910;2023-04-25T03:06:49;15.20;;;3.67;;
38901;SDS011;24661;53.566;9.910;2023-04-25T03:09:15;12.30;;;3.97;;
38901;SDS011;24661;53.566;9.910;2023-04-25T03:11:41;22.93;;;3.77;;
38901;SDS011;24661;53.566;9.910;2023-04-25T03:14:06;21.53;;;4.17;;
38901;SDS011;24661;53.566;9.910;2023-04-25T03:16:32;22.10;;;5.33;;
38901;SDS011;24661;53.566;9.910;2023-04-25T03:18:58;20.00;;;4.70;;
38901;SDS011;24661;53.566;9.910;2023-04-25T03:21:23;16.33;;;3.23;;
38901;SDS011;24661;53.566;9.910;2023-04-25T03:23:49;16.30;;;4.27;;
38901;SDS011;24661;53.566;9.910;2023-04-25T03:26:14;15.87;;;3.53;;
38901;SDS011;24661;53.566;9.910;2023-04-25T03:28:40;18.20;;;4.47;;
38901;SDS011;24661;53.566;9.910;2023-04-25T03:31:06;19.50;;;4.13;;
38901;SDS011;24661;53.566;9.910;2023-04-25T03:33:31;30.93;;;5.00;;
38901;SDS011;24661;53.566;9.910;2023-04-25T03:35:57;19.37;;;4.20;;
38901;SDS011;24661;53.566;9.910;2023-04-25T03:38:23;18.93;;;3.60;;
38901;SDS011;24661;53.566;9.910;2023-04-25T03:40:49;20.00;;;4.50;;
38901;SDS011;24661;53.566;9.910;2023-04-25T03:43:15;13.97;;;3.40;;
38901;SDS011;24661;53.566;9.910;2023-04-25T03:45:41;18.63;;;4.53;;
38901;SDS011;24661;53.566;9.910;2023-04-25T03:48:07;18.87;;;3.63;;
38901;SDS011;24661;53.566;9.910;2023-04-25T03:50:32;19.77;;;3.47;;
38901;SDS011;24661;53.566;9.910;2023-04-25T03:52:58;27.53;;;5.83;;
38901;SDS011;24661;53.566;9.910;2023-04-25T03:55:24;20.30;;;5.10;;
38901;SDS011;24661;53.566;9.910;2023-04-25T03:57:49;19.00;;;3.63;;
38901;SDS011;24661;53.566;9.910;2023-04-25T04:00:15;22.50;;;4.10;;
38901;SDS011;24661;53.566;9.910;2023-04-25T04:02:41;18.67;;;4.00;;
38901;SDS011;24661;53.566;9.910;2023-04-25T04:05:06;18.43;;;3.67;;
38901;SDS011;24661;53.566;9.910;2023-04-25T04:07:32;14.57;;;4.23;;
38901;SDS011;24661;53.566;9.910;2023-04-25T04:09:58;15.83;;;4.07;;
38901;SDS011;24661;53.566;9.910;2023-04-25T04:12:24;15.50;;;4.23;;
38901;SDS011;24661;53.566;9.910;2023-04-25T04:14:50;17.63;;;3.40;;
38901;SDS011;24661;53.566;9.910;2023-04-25T04:17:16;15.00;;;3.40;;
38901;SDS011;24661;53.566;9.910;2023-04-25T04:19:41;16.20;;;3.97;;
38901;SDS011;24661;53.566;9.910;2023-04-25T04:22:07;15.77;;;4.63;;
38901;SDS011;24661;53.566;9.910;2023-04-25T04:24:32;12.73;;;3.20;;
38901;SDS011;24661;53.566;9.910;2023-04-25T04:26:58;9.67;;;2.83;;
38901;SDS011;24661;53.566;9.910;2023-04-25T04:29:24;19.00;;;3.10;;
38901;SDS011;24661;53.566;9.910;2023-04-25T04:31:50;9.47;;;2.87;;
38901;SDS011;24661;53.566;9.910;2023-04-25T04:34:17;14.40;;;2.93;;
38901;SDS011;24661;53.566;9.910;2023-04-25T04:36:43;16.47;;;3.73;;
38901;SDS011;24661;53.566;9.910;2023-04-25T04:39:12;13.90;;;4.13;;
38901;SDS011;24661;53.566;9.910;2023-04-25T04:41:38;22.97;;;3.73;;
38901;SDS011;24661;53.566;9.910;2023-04-25T04:44:04;12.40;;;3.90;;
38901;SDS011;24661;53.566;9.910;2023-04-25T04:46:32;16.27;;;3.10;;
38901;SDS011;24661;53.566;9.910;2023-04-25T04:49:04;15.20;;;3.33;;
38901;SDS011;24661;53.566;9.910;2023-04-25T04:51:30;19.20;;;2.60;;
38901;SDS011;24661;53.566;9.910;2023-04-25T04:53:56;13.77;;;3.83;;
38901;SDS011;24661;53.566;9.910;2023-04-25T04:56:23;13.17;;;4.00;;
38901;SDS011;24661;53.566;9.910;2023-04-25T04:58:50;18.10;;;3.50;;
38901;SDS011;24661;53.566;9.910;2023-04-25T05:01:16;16.00;;;3.73;;
38901;SDS011;24661;53.566;9.910;2023-04-25T05:03:41;16.27;;;3.67;;
38901;SDS011;24661;53.566;9.910;2023-04-25T05:06:07;15.37;;;3.23;;
38901;SDS011;24661;53.566;9.910;2023-04-25T05:08:33;17.10;;;3.57;;
38901;SDS011;24661;53.566;9.910;2023-04-25T05:10:59;16.07;;;4.90;;
38901;SDS011;24661;53.566;9.910;2023-04-25T05:13:25;22.43;;;3.67;;
38901;SDS011;24661;53.566;9.910;2023-04-25T05:15:50;17.23;;;3.83;;
38901;SDS011;24661;53.566;9.910;2023-04-25T05:18:16;14.30;;;3.50;;
38901;SDS011;24661;53.566;9.910;2023-04-25T05:20:41;20.40;;;3.73;;
38901;SDS011;24661;53.566;9.910;2023-04-25T05:23:07;25.40;;;4.90;;
38901;SDS011;24661;53.566;9.910;2023-04-25T05:25:33;16.87;;;3.50;;
38901;SDS011;24661;53.566;9.910;2023-04-25T05:27:58;17.53;;;4.37;;
38901;SDS011;24661;53.566;9.910;2023-04-25T05:30:24;19.73;;;4.17;;
38901;SDS011;24661;53.566;9.910;2023-04-25T05:32:49;23.70;;;3.17;;
38901;SDS011;24661;53.566;9.910;2023-04-25T05:35:15;11.13;;;2.93;;
38901;SDS011;24661;53.566;9.910;2023-04-25T05:37:41;12.63;;;3.57;;
38901;SDS011;24661;53.566;9.910;2023-04-25T05:40:08;24.10;;;3.80;;
38901;SDS011;24661;53.566;9.910;2023-04-25T05:42:33;16.43;;;3.43;;
38901;SDS011;24661;53.566;9.910;2023-04-25T05:44:59;19.03;;;3.10;;
38901;SDS011;24661;53.566;9.910;2023-04-25T05:47:25;22.10;;;4.00;;
38901;SDS011;24661;53.566;9.910;2023-04-25T05:49:51;11.57;;;3.43;;
38901;SDS011;24661;53.566;9.910;2023-04-25T05:52:17;14.00;;;3.27;;
38901;SDS011;24661;53.566;9.910;2023-04-25T05:54:42;18.27;;;5.03;;
38901;SDS011;24661;53.566;9.910;2023-04-25T05:57:08;23.13;;;3.10;;
38901;SDS011;24661;53.566;9.910;2023-04-25T05:59:33;12.53;;;2.77;;
38901;SDS011;24661;53.566;9.910;2023-04-25T06:01:59;16.63;;;3.80;;
38901;SDS011;24661;53.566;9.910;2023-04-25T06:04:25;10.57;;;2.83;;
38901;SDS011;24661;53.566;9.910;2023-04-25T06:06:51;10.57;;;2.67;;
38901;SDS011;24661;53.566;9.910;2023-04-25T06:09:16;14.90;;;3.23;;
38901;SDS011;24661;53.566;9.910;2023-04-25T06:11:42;16.03;;;3.27;;
38901;SDS011;24661;53.566;9.910;2023-04-25T06:14:08;12.90;;;2.83;;
38901;SDS011;24661;53.566;9.910;2023-04-25T06:16:33;15.77;;;2.80;;
38901;SDS011;24661;53.566;9.910;2023-04-25T06:18:59;18.37;;;2.80;;
38901;SDS011;24661;53.566;9.910;2023-04-25T06:21:24;9.60;;;3.77;;
38901;SDS011;24661;53.566;9.910;2023-04-25T06:23:50;11.40;;;2.80;;
38901;SDS011;24661;53.566;9.910;2023-04-25T06:26:16;9.60;;;2.90;;
38901;SDS011;24661;53.566;9.910;2023-04-25T06:28:41;13.77;;;2.77;;
38901;SDS011;24661;53.566;9.910;2023-04-25T06:31:07;15.17;;;3.80;;
38901;SDS011;24661;53.566;9.910;2023-04-25T06:33:33;14.23;;;2.87;;
38901;SDS011;24661;53.566;9.910;2023-04-25T06:35:58;12.57;;;2.73;;
38901;SDS011;24661;53.566;9.910;2023-04-25T06:38:24;16.57;;;2.63;;
38901;SDS011;24661;53.566;9.910;2023-04-25T06:40:49;13.73;;;3.13;;
38901;SDS011;24661;53.566;9.910;2023-04-25T06:43:15;9.23;;;2.83;;
38901;SDS011;24661;53.566;9.910;2023-04-25T06:45:41;16.90;;;2.87;;
38901;SDS011;24661;53.566;9.910;2023-04-25T06:48:07;12.10;;;3.23;;
38901;SDS011;24661;53.566;9.910;2023-04-25T06:50:33;13.20;;;3.00;;
38901;SDS011;24661;53.566;9.910;2023-04-25T06:52:59;14.23;;;4.80;;
38901;SDS011;24661;53.566;9.910;2023-04-25T06:55:26;10.33;;;2.57;;
38901;SDS011;24661;53.566;9.910;2023-04-25T06:57:52;15.70;;;3.77;;
38901;SDS011;24661;53.566;9.910;2023-04-25T07:00:17;16.63;;;2.57;;
38901;SDS011;24661;53.566;9.910;2023-04-25T07:02:43;24.43;;;3.50;;
38901;SDS011;24661;53.566;9.910;2023-04-25T07:05:09;7.73;;;2.50;;
38901;SDS011;24661;53.566;9.910;2023-04-25T07:07:35;10.90;;;2.80;;
38901;SDS011;24661;53.566;9.910;2023-04-25T07:10:00;13.63;;;2.57;;
38901;SDS011;24661;53.566;9.910;2023-04-25T07:12:26;15.23;;;2.50;;
38901;SDS011;24661;53.566;9.910;2023-04-25T07:14:51;10.93;;;2.90;;
38901;SDS011;24661;53.566;9.910;2023-04-25T07:17:18;11.20;;;2.30;;
38901;SDS011;24661;53.566;9.910;2023-04-25T07:19:44;7.87;;;2.67;;
38901;SDS011;24661;53.566;9.910;2023-04-25T07:22:09;9.87;;;2.47;;
38901;SDS011;24661;53.566;9.910;2023-04-25T07:24:35;16.83;;;2.57;;
38901;SDS011;24661;53.566;9.910;2023-04-25T07:27:00;18.53;;;2.90;;
38901;SDS011;24661;53.566;9.910;2023-04-25T07:29:27;10.40;;;2.40;;
38901;SDS011;24661;53.566;9.910;2023-04-25T07:31:53;9.73;;;2.53;;
38901;SDS011;24661;53.566;9.910;2023-04-25T07:34:18;12.17;;;2.37;;
38901;SDS011;24661;53.566;9.910;2023-04-25T07:36:44;13.10;;;2.47;;
38901;SDS011;24661;53.566;9.910;2023-04-25T07:39:10;8.93;;;2.70;;
38901;SDS011;24661;53.566;9.910;2023-04-25T07:41:35;11.33;;;2.17;;
38901;SDS011;24661;53.566;9.910;2023-04-25T07:44:01;9.10;;;2.00;;
38901;SDS011;24661;53.566;9.910;2023-04-25T07:46:26;9.67;;;1.90;;
38901;SDS011;24661;53.566;9.910;2023-04-25T07:48:52;15.17;;;2.83;;
38901;SDS011;24661;53.566;9.910;2023-04-25T07:51:17;11.83;;;2.00;;
38901;SDS011;24661;53.566;9.910;2023-04-25T07:53:44;6.07;;;2.13;;
38901;SDS011;24661;53.566;9.910;2023-04-25T07:56:10;9.70;;;2.53;;
38901;SDS011;24661;53.566;9.910;2023-04-25T07:58:36;13.60;;;1.90;;
38901;SDS011;24661;53.566;9.910;2023-04-25T08:01:02;9.63;;;2.70;;
38901;SDS011;24661;53.566;9.910;2023-04-25T08:03:27;12.07;;;2.10;;
38901;SDS011;24661;53.566;9.910;2023-04-25T08:05:53;11.13;;;2.47;;
38901;SDS011;24661;53.566;9.910;2023-04-25T08:08:18;15.40;;;2.53;;
38901;SDS011;24661;53.566;9.910;2023-04-25T08:10:44;9.77;;;2.40;;
38901;SDS011;24661;53.566;9.910;2023-04-25T08:13:09;13.00;;;2.50;;
38901;SDS011;24661;53.566;9.910;2023-04-25T08:15:35;6.83;;;2.07;;
38901;SDS011;24661;53.566;9.910;2023-04-25T08:18:00;11.57;;;2.17;;
38901;SDS011;24661;53.566;9.910;2023-04-25T08:20:26;14.40;;;2.10;;
38901;SDS011;24661;53.566;9.910;2023-04-25T08:22:52;13.43;;;2.70;;
38901;SDS011;24661;53.566;9.910;2023-04-25T08:25:17;9.23;;;2.40;;
38901;SDS011;24661;53.566;9.910;2023-04-25T08:27:43;11.23;;;2.37;;
38901;SDS011;24661;53.566;9.910;2023-04-25T08:30:08;13.07;;;2.10;;
38901;SDS011;24661;53.566;9.910;2023-04-25T08:32:34;12.67;;;2.70;;
38901;SDS011;24661;53.566;9.910;2023-04-25T08:35:03;9.67;;;2.07;;
38901;SDS011;24661;53.566;9.910;2023-04-25T08:37:29;10.33;;;2.57;;
38901;SDS011;24661;53.566;9.910;2023-04-25T08:39:55;15.03;;;3.23;;
38901;SDS011;24661;53.566;9.910;2023-04-25T08:42:21;5.13;;;1.67;;
38901;SDS011;24661;53.566;9.910;2023-04-25T08:44:48;11.80;;;2.50;;
38901;SDS011;24661;53.566;9.910;2023-04-25T08:47:13;10.53;;;2.93;;
38901;SDS011;24661;53.566;9.910;2023-04-25T08:49:39;5.47;;;1.90;;
38901;SDS011;24661;53.566;9.910;2023-04-25T08:52:10;12.20;;;1.93;;
38901;SDS011;24661;53.566;9.910;2023-04-25T08:54:41;5.60;;;2.03;;
38901;SDS011;24661;53.566;9.910;2023-04-25T08:57:09;10.20;;;2.10;;
38901;SDS011;24661;53.566;9.910;2023-04-25T08:59:34;9.67;;;1.80;;
38901;SDS011;24661;53.566;9.910;2023-04-25T09:02:02;7.73;;;2.40;;
38901;SDS011;24661;53.566;9.910;2023-04-25T09:04:30;16.47;;;5.13;;
38901;SDS011;24661;53.566;9.910;2023-04-25T09:06:56;7.87;;;2.03;;
38901;SDS011;24661;53.566;9.910;2023-04-25T09:09:22;9.50;;;1.63;;
38901;SDS011;24661;53.566;9.910;2023-04-25T09:11:49;6.10;;;1.33;;
38901;SDS011;24661;53.566;9.910;2023-04-25T09:14:18;7.63;;;1.50;;
38901;SDS011;24661;53.566;9.910;2023-04-25T09:17:04;2.67;;;1.03;;
38901;SDS011;24661;53.566;9.910;2023-04-25T09:19:33;4.30;;;1.53;;
38901;SDS011;24661;53.566;9.910;2023-04-25T09:22:01;7.90;;;2.47;;
38901;SDS011;24661;53.566;9.910;2023-04-25T09:27:07;8.60;;;2.10;;
38901;SDS011;24661;53.566;9.910;2023-04-25T09:29:35;12.10;;;2.20;;
38901;SDS011;24661;53.566;9.910;2023-04-25T09:32:24;12.53;;;2.27;;
38901;SDS011;24661;53.566;9.910;2023-04-25T09:34:57;12.43;;;2.60;;
38901;SDS011;24661;53.566;9.910;2023-04-25T09:37:23;6.23;;;1.63;;
38901;SDS011;24661;53.566;9.910;2023-04-25T09:39:54;7.10;;;2.20;;
38901;SDS011;24661;53.566;9.910;2023-04-25T09:42:26;8.10;;;1.93;;
38901;SDS011;24661;53.566;9.910;2023-04-25T09:44:54;7.80;;;2.20;;
38901;SDS011;24661;53.566;9.910;2023-04-25T09:47:23;9.37;;;2.03;;
38901;SDS011;24661;53.566;9.910;2023-04-25T09:49:50;6.83;;;1.80;;
38901;SDS011;24661;53.566;9.910;2023-04-25T09:52:18;9.30;;;1.80;;
38901;SDS011;24661;53.566;9.910;2023-04-25T09:54:45;10.47;;;1.67;;
38901;SDS011;24661;53.566;9.910;2023-04-25T09:57:15;10.10;;;2.13;;
38901;SDS011;24661;53.566;9.910;2023-04-25T09:59:46;6.97;;;1.43;;
38901;SDS011;24661;53.566;9.910;2023-04-25T10:02:14;6.00;;;1.90;;
38901;SDS011;24661;53.566;9.910;2023-04-25T10:04:42;8.33;;;1.87;;
38901;SDS011;24661;53.566;9.910;2023-04-25T10:07:11;13.53;;;2.40;;
38901;SDS011;24661;53.566;9.910;2023-04-25T10:09:37;5.17;;;1.90;;
38901;SDS011;24661;53.566;9.910;2023-04-25T10:12:04;10.23;;;2.03;;
38901;SDS011;24661;53.566;9.910;2023-04-25T10:14:31;6.70;;;1.73;;
38901;SDS011;24661;53.566;9.910;2023-04-25T10:16:57;5.20;;;1.00;;
38901;SDS011;24661;53.566;9.910;2023-04-25T10:19:24;6.83;;;1.33;;
38901;SDS011;24661;53.566;9.910;2023-04-25T10:21:52;10.60;;;1.80;;
38901;SDS011;24661;53.566;9.910;2023-04-25T10:24:30;3.43;;;1.00;;
38901;SDS011;24661;53.566;9.910;2023-04-25T10:26:57;6.97;;;1.90;;
38901;SDS011;24661;53.566;9.910;2023-04-25T10:29:24;4.33;;;1.50;;
38901;SDS011;24661;53.566;9.910;2023-04-25T10:31:50;7.87;;;2.27;;
38901;SDS011;24661;53.566;9.910;2023-04-25T10:34:17;7.43;;;1.83;;
38901;SDS011;24661;53.566;9.910;2023-04-25T10:36:44;8.10;;;1.60;;
38901;SDS011;24661;53.566;9.910;2023-04-25T10:39:15;9.90;;;2.13;;
38901;SDS011;24661;53.566;9.910;2023-04-25T10:41:48;5.07;;;1.63;;
38901;SDS011;24661;53.566;9.910;2023-04-25T10:44:22;7.80;;;1.20;;
38901;SDS011;24661;53.566;9.910;2023-04-25T10:46:47;9.63;;;1.90;;
38901;SDS011;24661;53.566;9.910;2023-04-25T10:49:31;5.97;;;2.00;;
38901;SDS011;24661;53.566;9.910;2023-04-25T10:52:16;11.00;;;1.70;;
38901;SDS011;24661;53.566;9.910;2023-04-25T10:54:47;10.07;;;2.00;;
38901;SDS011;24661;53.566;9.910;2023-04-25T10:57:27;6.37;;;2.00;;
38901;SDS011;24661;53.566;9.910;2023-04-25T10:59:59;12.97;;;2.17;;
38901;SDS011;24661;53.566;9.910;2023-04-25T11:02:32;13.53;;;2.17;;
38901;SDS011;24661;53.566;9.910;2023-04-25T11:05:02;8.20;;;1.70;;
38901;SDS011;24661;53.566;9.910;2023-04-25T11:07:41;9.73;;;1.97;;
38901;SDS011;24661;53.566;9.910;2023-04-25T11:10:14;8.80;;;2.17;;
38901;SDS011;24661;53.566;9.910;2023-04-25T11:12:40;6.20;;;1.70;;
38901;SDS011;24661;53.566;9.910;2023-04-25T11:15:06;10.30;;;2.03;;
38901;SDS011;24661;53.566;9.910;2023-04-25T11:17:32;8.33;;;1.93;;
38901;SDS011;24661;53.566;9.910;2023-04-25T11:19:58;7.07;;;1.63;;
38901;SDS011;24661;53.566;9.910;2023-04-25T11:22:26;7.57;;;1.70;;
38901;SDS011;24661;53.566;9.910;2023-04-25T11:24:52;8.40;;;1.60;;
38901;SDS011;24661;53.566;9.910;2023-04-25T11:27:19;8.40;;;1.87;;
38901;SDS011;24661;53.566;9.910;2023-04-25T11:29:46;6.43;;;1.57;;
38901;SDS011;24661;53.566;9.910;2023-04-25T11:32:15;3.93;;;1.10;;
38901;SDS011;24661;53.566;9.910;2023-04-25T11:34:43;5.53;;;1.20;;
38901;SDS011;24661;53.566;9.910;2023-04-25T11:37:10;4.70;;;1.53;;
38901;SDS011;24661;53.566;9.910;2023-04-25T11:39:39;7.47;;;1.60;;
38901;SDS011;24661;53.566;9.910;2023-04-25T11:42:09;5.73;;;1.50;;
38901;SDS011;24661;53.566;9.910;2023-04-25T11:44:34;3.73;;;1.13;;
38901;SDS011;24661;53.566;9.910;2023-04-25T11:47:02;3.87;;;1.67;;
38901;SDS011;24661;53.566;9.910;2023-04-25T11:49:31;10.73;;;1.30;;
38901;SDS011;24661;53.566;9.910;2023-04-25T11:52:22;5.53;;;1.63;;
38901;SDS011;24661;53.566;9.910;2023-04-25T11:54:48;9.53;;;1.60;;
38901;SDS011;24661;53.566;9.910;2023-04-25T11:57:13;9.67;;;1.20;;
38901;SDS011;24661;53.566;9.910;2023-04-25T11:59:40;5.80;;;1.70;;
38901;SDS011;24661;53.566;9.910;2023-04-25T12:02:06;6.37;;;1.50;;
38901;SDS011;24661;53.566;9.910;2023-04-25T12:04:32;5.17;;;1.70;;
38901;SDS011;24661;53.566;9.910;2023-04-25T12:06:58;5.50;;;1.93;;
38901;SDS011;24661;53.566;9.910;2023-04-25T12:11:56;3.33;;;1.00;;
38901;SDS011;24661;53.566;9.910;2023-04-25T12:14:24;4.27;;;1.53;;
38901;SDS011;24661;53.566;9.910;2023-04-25T12:16:58;2.93;;;1.13;;
38901;SDS011;24661;53.566;9.910;2023-04-25T12:19:25;9.40;;;1.50;;
38901;SDS011;24661;53.566;9.910;2023-04-25T12:21:51;2.23;;;1.23;;
38901;SDS011;24661;53.566;9.910;2023-04-25T12:24:21;3.63;;;1.10;;
38901;SDS011;24661;53.566;9.910;2023-04-25T12:27:02;10.40;;;1.43;;
38901;SDS011;24661;53.566;9.910;2023-04-25T12:29:31;8.80;;;1.70;;
38901;SDS011;24661;53.566;9.910;2023-04-25T12:31:58;5.00;;;1.13;;
38901;SDS011;24661;53.566;9.910;2023-04-25T12:34:25;7.80;;;2.97;;
38901;SDS011;24661;53.566;9.910;2023-04-25T12:36:51;4.00;;;1.07;;
38901;SDS011;24661;53.566;9.910;2023-04-25T12:39:21;4.97;;;1.00;;
38901;SDS011;24661;53.566;9.910;2023-04-25T12:41:48;4.43;;;1.07;;
38901;SDS011;24661;53.566;9.910;2023-04-25T12:44:19;5.90;;;1.63;;
38901;SDS011;24661;53.566;9.910;2023-04-25T12:46:45;5.17;;;1.63;;
38901;SDS011;24661;53.566;9.910;2023-04-25T12:49:10;5.67;;;1.33;;
38901;SDS011;24661;53.566;9.910;2023-04-25T12:51:36;6.30;;;1.80;;
38901;SDS011;24661;53.566;9.910;2023-04-25T12:54:03;7.37;;;1.97;;
38901;SDS011;24661;53.566;9.910;2023-04-25T12:56:31;7.57;;;2.23;;
38901;SDS011;24661;53.566;9.910;2023-04-25T12:58:57;6.67;;;1.93;;
38901;SDS011;24661;53.566;9.910;2023-04-25T13:01:24;7.10;;;1.87;;
38901;SDS011;24661;53.566;9.910;2023-04-25T13:03:51;8.47;;;1.47;;
38901;SDS011;24661;53.566;9.910;2023-04-25T13:06:19;8.67;;;2.70;;
38901;SDS011;24661;53.566;9.910;2023-04-25T13:08:45;7.20;;;1.67;;
38901;SDS011;24661;53.566;9.910;2023-04-25T13:11:11;4.17;;;2.30;;
38901;SDS011;24661;53.566;9.910;2023-04-25T13:13:37;9.10;;;3.00;;
38901;SDS011;24661;53.566;9.910;2023-04-25T13:16:05;11.27;;;1.60;;
38901;SDS011;24661;53.566;9.910;2023-04-25T13:18:32;5.80;;;1.20;;
38901;SDS011;24661;53.566;9.910;2023-04-25T13:20:58;3.90;;;1.60;;
38901;SDS011;24661;53.566;9.910;2023-04-25T13:23:25;2.87;;;1.53;;
38901;SDS011;24661;53.566;9.910;2023-04-25T13:25:52;7.37;;;1.50;;
38901;SDS011;24661;53.566;9.910;2023-04-25T13:28:18;6.83;;;1.93;;
38901;SDS011;24661;53.566;9.910;2023-04-25T13:30:44;11.33;;;1.97;;
38901;SDS011;24661;53.566;9.910;2023-04-25T13:33:09;9.93;;;2.43;;
38901;SDS011;24661;53.566;9.910;2023-04-25T13:35:36;4.77;;;1.50;;
38901;SDS011;24661;53.566;9.910;2023-04-25T13:38:05;8.57;;;1.60;;
38901;SDS011;24661;53.566;9.910;2023-04-25T13:40:31;7.60;;;2.83;;
38901;SDS011;24661;53.566;9.910;2023-04-25T13:43:03;10.27;;;2.00;;
38901;SDS011;24661;53.566;9.910;2023-04-25T13:45:29;8.10;;;2.27;;
38901;SDS011;24661;53.566;9.910;2023-04-25T13:47:58;8.53;;;1.90;;
38901;SDS011;24661;53.566;9.910;2023-04-25T13:50:23;5.23;;;1.20;;
38901;SDS011;24661;53.566;9.910;2023-04-25T13:52:50;6.50;;;1.20;;
38901;SDS011;24661;53.566;9.910;2023-04-25T13:55:15;7.53;;;1.40;;
38901;SDS011;24661;53.566;9.910;2023-04-25T13:57:44;3.90;;;1.33;;
38901;SDS011;24661;53.566;9.910;2023-04-25T14:00:11;5.47;;;1.27;;
38901;SDS011;24661;53.566;9.910;2023-04-25T14:02:39;8.67;;;2.17;;
38901;SDS011;24661;53.566;9.910;2023-04-25T14:05:08;8.20;;;1.67;;
38901;SDS011;24661;53.566;9.910;2023-04-25T14:07:34;6.80;;;1.90;;
38901;SDS011;24661;53.566;9.910;2023-04-25T14:10:02;7.63;;;1.70;;
38901;SDS011;24661;53.566;9.910;2023-04-25T14:12:29;10.70;;;2.00;;
38901;SDS011;24661;53.566;9.910;2023-04-25T14:14:55;6.70;;;1.90;;
38901;SDS011;24661;53.566;9.910;2023-04-25T14:17:23;6.63;;;1.90;;
38901;SDS011;24661;53.566;9.910;2023-04-25T14:19:52;12.33;;;2.63;;
38901;SDS011;24661;53.566;9.910;2023-04-25T14:22:20;11.67;;;2.30;;
38901;SDS011;24661;53.566;9.910;2023-04-25T14:24:49;12.73;;;2.07;;
38901;SDS011;24661;53.566;9.910;2023-04-25T14:27:14;9.70;;;2.77;;
38901;SDS011;24661;53.566;9.910;2023-04-25T14:29:40;13.23;;;2.00;;
38901;SDS011;24661;53.566;9.910;2023-04-25T14:32:11;7.77;;;2.10;;
38901;SDS011;24661;53.566;9.910;2023-04-25T14:34:37;5.10;;;1.47;;
38901;SDS011;24661;53.566;9.910;2023-04-25T14:37:03;9.03;;;1.77;;
38901;SDS011;24661;53.566;9.910;2023-04-25T14:39:28;8.63;;;1.93;;
38901;SDS011;24661;53.566;9.910;2023-04-25T14:41:54;16.37;;;2.30;;
38901;SDS011;24661;53.566;9.910;2023-04-25T14:44:22;10.63;;;1.60;;